Gausdale, Kentucky
Current Conditions -  °F | °C
As of 3:53 PM on Thursday 23 Oct 2014 (Local Time) from KLOZ Reporting Station
Clear Clear  
Wind Chill: 63°   Ceiling: Unl
Heat Index: 63°   Visibility: 10mi
Dew Point: 39°   Wind: 7mph
Humidity: 41%   Direction: 360°N
Pressure: 30.13"   Gusts: NA
Location:  36.865°N, 83.9507°W
Report Text: KLOZ 231953Z AUTO 36006KT 10SM CLR 17/04 A3013 RMK AO2 SLP200 T01720039
Loading
Personal Weather Stations






























Interactive Weather Map
Tropical Storm Tracking
New forecast layout! Learn more

10-Day Weather Forecast

Advertisements
Track Severe Weather on mobile